Ana Sayfa
METAR-TAF:

METAR-TAF

Havaalanları :

Billy Mitchell Airport

Hatteras, Kuzey Carolina, Amerika Birleşik Devletleri

Enlem: 35-13-56N, Boylam: 075-37-21W, yükseklik: 5 m

Güncel hava durumu gözlemi

Rapor saat 23:51 UTC de 38 dakika önce yapıldı.
Rüzgar batıdan 7 kt
Sıcaklık 9°C
Nem 66%
Basınç 1014 hPa
Görüş mesafesi: 16.1 km
Açık gökyüzü

METAR: KHSE 262351Z AUTO 28007KT 10SM CLR 09/03 A2994 RMK AO2 SLP138 T00940033 10117 20094 53014

Saat: 19:29 (00:29 UTC)


TAF: eksik

4.000'den fazla havaalanı için hava durumu gözlemleri ve tahminleri (METAR ve TAF raporları).

Kullanılabilir istasyonlar harita üzerinde sarı ve kırmızı noktalarla gösterilir.

İstasyonun adını görmek için fareyi noktanın üzerinde gezdirin.

Sonrasında hava gözlem ve tahminlerini görmek için tıklayın.

Haritayı değiştirmek için: yaklaştırmak için siyah artı işaretli yeşil düğmeye ve uzaklaştırmak için de eksi işaretli düğmeye hızla tıklayın; bitişik haritalar için yeşil okları kullanın.


METAR-TAF: